sensor_id;sensor_type;location;lat;lon;timestamp;temperature;humidity
41838;DHT22;27511;52.042;5.178;2023-03-05T00:01:06;8.40;99.90
41838;DHT22;27511;52.042;5.178;2023-03-05T00:03:31;8.30;99.90
41838;DHT22;27511;52.042;5.178;2023-03-05T00:05:57;8.30;99.90
41838;DHT22;27511;52.042;5.178;2023-03-05T00:08:22;8.30;99.90
41838;DHT22;27511;52.042;5.178;2023-03-05T00:10:55;8.30;99.90
41838;DHT22;27511;52.042;5.178;2023-03-05T00:13:20;8.20;99.90
41838;DHT22;27511;52.042;5.178;2023-03-05T00:15:46;8.20;99.90
41838;DHT22;27511;52.042;5.178;2023-03-05T00:18:11;8.20;99.90
41838;DHT22;27511;52.042;5.178;2023-03-05T00:20:36;8.10;99.90
41838;DHT22;27511;52.042;5.178;2023-03-05T00:23:02;8.00;99.90
41838;DHT22;27511;52.042;5.178;2023-03-05T00:25:27;8.10;99.90
41838;DHT22;27511;52.042;5.178;2023-03-05T00:27:53;8.20;99.90
41838;DHT22;27511;52.042;5.178;2023-03-05T00:30:18;8.10;99.90
41838;DHT22;27511;52.042;5.178;2023-03-05T00:32:44;8.10;99.90
41838;DHT22;27511;52.042;5.178;2023-03-05T00:35:09;8.10;99.90
41838;DHT22;27511;52.042;5.178;2023-03-05T00:37:35;8.10;99.90
41838;DHT22;27511;52.042;5.178;2023-03-05T00:40:01;8.20;99.90
41838;DHT22;27511;52.042;5.178;2023-03-05T00:42:26;8.00;99.90
41838;DHT22;27511;52.042;5.178;2023-03-05T00:44:52;7.90;99.90
41838;DHT22;27511;52.042;5.178;2023-03-05T00:47:17;7.90;99.90
41838;DHT22;27511;52.042;5.178;2023-03-05T00:49:43;7.90;99.90
41838;DHT22;27511;52.042;5.178;2023-03-05T00:52:08;8.00;99.90
41838;DHT22;27511;52.042;5.178;2023-03-05T00:54:34;8.20;99.90
41838;DHT22;27511;52.042;5.178;2023-03-05T00:56:59;8.20;99.90
41838;DHT22;27511;52.042;5.178;2023-03-05T00:59:25;8.10;99.90
41838;DHT22;27511;52.042;5.178;2023-03-05T01:01:53;8.00;99.90
41838;DHT22;27511;52.042;5.178;2023-03-05T01:04:18;8.10;99.90
41838;DHT22;27511;52.042;5.178;2023-03-05T01:06:44;8.20;99.90
41838;DHT22;27511;52.042;5.178;2023-03-05T01:09:10;8.10;99.90
41838;DHT22;27511;52.042;5.178;2023-03-05T01:11:36;8.00;99.90
41838;DHT22;27511;52.042;5.178;2023-03-05T01:14:01;8.20;99.90
41838;DHT22;27511;52.042;5.178;2023-03-05T01:16:27;8.30;99.90
41838;DHT22;27511;52.042;5.178;2023-03-05T01:18:52;8.40;99.90
41838;DHT22;27511;52.042;5.178;2023-03-05T01:21:19;8.30;99.90
41838;DHT22;27511;52.042;5.178;2023-03-05T01:23:46;8.40;99.90
41838;DHT22;27511;52.042;5.178;2023-03-05T01:26:12;8.30;99.90
41838;DHT22;27511;52.042;5.178;2023-03-05T01:28:37;8.30;99.90
41838;DHT22;27511;52.042;5.178;2023-03-05T01:31:08;8.20;99.90
41838;DHT22;27511;52.042;5.178;2023-03-05T01:33:33;8.20;99.90
41838;DHT22;27511;52.042;5.178;2023-03-05T01:35:59;8.10;99.90
41838;DHT22;27511;52.042;5.178;2023-03-05T01:38:24;8.10;99.90
41838;DHT22;27511;52.042;5.178;2023-03-05T01:40:50;8.10;99.90
41838;DHT22;27511;52.042;5.178;2023-03-05T01:43:26;8.20;99.90
41838;DHT22;27511;52.042;5.178;2023-03-05T01:46:34;8.20;99.90
41838;DHT22;27511;52.042;5.178;2023-03-05T01:48:44;8.10;99.90
41838;DHT22;27511;52.042;5.178;2023-03-05T01:51:11;8.00;99.90
41838;DHT22;27511;52.042;5.178;2023-03-05T01:53:37;8.20;99.90
41838;DHT22;27511;52.042;5.178;2023-03-05T01:56:03;8.00;99.90
41838;DHT22;27511;52.042;5.178;2023-03-05T01:58:28;7.90;99.90
41838;DHT22;27511;52.042;5.178;2023-03-05T02:00:54;7.80;99.90
41838;DHT22;27511;52.042;5.178;2023-03-05T02:03:19;7.80;99.90
41838;DHT22;27511;52.042;5.178;2023-03-05T02:05:46;7.60;99.90
41838;DHT22;27511;52.042;5.178;2023-03-05T02:08:16;7.50;99.90
41838;DHT22;27511;52.042;5.178;2023-03-05T02:10:43;7.40;99.90
41838;DHT22;27511;52.042;5.178;2023-03-05T02:13:10;7.40;99.90
41838;DHT22;27511;52.042;5.178;2023-03-05T02:15:36;7.40;99.90
41838;DHT22;27511;52.042;5.178;2023-03-05T02:18:02;7.40;99.90
41838;DHT22;27511;52.042;5.178;2023-03-05T02:20:29;7.40;99.90
41838;DHT22;27511;52.042;5.178;2023-03-05T02:22:55;7.40;99.90
41838;DHT22;27511;52.042;5.178;2023-03-05T02:25:22;7.60;99.90
41838;DHT22;27511;52.042;5.178;2023-03-05T02:27:50;7.50;99.90
41838;DHT22;27511;52.042;5.178;2023-03-05T02:30:17;7.40;99.90
41838;DHT22;27511;52.042;5.178;2023-03-05T02:32:42;7.30;99.90
41838;DHT22;27511;52.042;5.178;2023-03-05T02:35:08;7.20;99.90
41838;DHT22;27511;52.042;5.178;2023-03-05T02:37:33;7.10;99.90
41838;DHT22;27511;52.042;5.178;2023-03-05T02:39:59;7.00;99.90
41838;DHT22;27511;52.042;5.178;2023-03-05T02:42:25;7.00;99.90
41838;DHT22;27511;52.042;5.178;2023-03-05T02:44:51;7.10;99.90
41838;DHT22;27511;52.042;5.178;2023-03-05T02:47:16;7.10;99.90
41838;DHT22;27511;52.042;5.178;2023-03-05T02:49:42;7.00;99.90
41838;DHT22;27511;52.042;5.178;2023-03-05T02:52:07;6.90;99.90
41838;DHT22;27511;52.042;5.178;2023-03-05T02:54:33;7.00;99.90
41838;DHT22;27511;52.042;5.178;2023-03-05T02:56:58;6.90;99.90
41838;DHT22;27511;52.042;5.178;2023-03-05T02:59:23;6.90;99.90
41838;DHT22;27511;52.042;5.178;2023-03-05T03:01:49;7.00;99.90
41838;DHT22;27511;52.042;5.178;2023-03-05T03:04:14;7.00;99.90
41838;DHT22;27511;52.042;5.178;2023-03-05T03:06:40;6.90;99.90
41838;DHT22;27511;52.042;5.178;2023-03-05T03:09:05;7.00;99.90
41838;DHT22;27511;52.042;5.178;2023-03-05T03:11:31;7.00;99.90
41838;DHT22;27511;52.042;5.178;2023-03-05T03:13:57;7.00;99.90
41838;DHT22;27511;52.042;5.178;2023-03-05T03:16:23;7.00;99.90
41838;DHT22;27511;52.042;5.178;2023-03-05T03:18:48;7.10;99.90
41838;DHT22;27511;52.042;5.178;2023-03-05T03:21:22;7.20;99.90
41838;DHT22;27511;52.042;5.178;2023-03-05T03:23:47;7.10;99.90
41838;DHT22;27511;52.042;5.178;2023-03-05T03:26:13;7.20;99.90
41838;DHT22;27511;52.042;5.178;2023-03-05T03:28:38;7.30;99.90
41838;DHT22;27511;52.042;5.178;2023-03-05T03:31:04;7.40;99.90
41838;DHT22;27511;52.042;5.178;2023-03-05T03:33:30;7.40;99.90
41838;DHT22;27511;52.042;5.178;2023-03-05T03:35:55;7.50;99.90
41838;DHT22;27511;52.042;5.178;2023-03-05T03:38:21;7.40;99.90
41838;DHT22;27511;52.042;5.178;2023-03-05T03:40:46;7.40;99.90
41838;DHT22;27511;52.042;5.178;2023-03-05T03:43:12;7.50;99.90
41838;DHT22;27511;52.042;5.178;2023-03-05T03:45:41;7.50;99.90
41838;DHT22;27511;52.042;5.178;2023-03-05T03:48:06;7.40;99.90
41838;DHT22;27511;52.042;5.178;2023-03-05T03:50:32;7.40;99.90
41838;DHT22;27511;52.042;5.178;2023-03-05T03:52:57;7.40;99.90
41838;DHT22;27511;52.042;5.178;2023-03-05T03:55:22;7.50;99.90
41838;DHT22;27511;52.042;5.178;2023-03-05T03:57:48;7.60;99.90
41838;DHT22;27511;52.042;5.178;2023-03-05T04:00:14;7.60;99.90
41838;DHT22;27511;52.042;5.178;2023-03-05T04:02:39;7.60;99.90
41838;DHT22;27511;52.042;5.178;2023-03-05T04:05:05;7.70;99.90
41838;DHT22;27511;52.042;5.178;2023-03-05T04:07:31;7.80;99.90
41838;DHT22;27511;52.042;5.178;2023-03-05T04:09:56;7.80;99.90
41838;DHT22;27511;52.042;5.178;2023-03-05T04:12:22;7.70;99.90
41838;DHT22;27511;52.042;5.178;2023-03-05T04:14:47;7.80;99.90
41838;DHT22;27511;52.042;5.178;2023-03-05T04:17:13;7.70;99.90
41838;DHT22;27511;52.042;5.178;2023-03-05T04:19:39;7.90;99.90
41838;DHT22;27511;52.042;5.178;2023-03-05T04:22:06;7.70;99.90
41838;DHT22;27511;52.042;5.178;2023-03-05T04:24:32;7.50;99.90
41838;DHT22;27511;52.042;5.178;2023-03-05T04:26:57;7.50;99.90
41838;DHT22;27511;52.042;5.178;2023-03-05T04:29:23;7.30;99.90
41838;DHT22;27511;52.042;5.178;2023-03-05T04:31:48;7.40;99.90
41838;DHT22;27511;52.042;5.178;2023-03-05T04:34:14;7.40;99.90
41838;DHT22;27511;52.042;5.178;2023-03-05T04:36:39;7.40;99.90
41838;DHT22;27511;52.042;5.178;2023-03-05T04:39:05;7.30;99.90
41838;DHT22;27511;52.042;5.178;2023-03-05T04:41:30;7.30;99.90
41838;DHT22;27511;52.042;5.178;2023-03-05T04:43:56;7.20;99.90
41838;DHT22;27511;52.042;5.178;2023-03-05T04:46:21;7.30;99.90
41838;DHT22;27511;52.042;5.178;2023-03-05T04:48:47;7.20;99.90
41838;DHT22;27511;52.042;5.178;2023-03-05T04:51:12;7.10;99.90
41838;DHT22;27511;52.042;5.178;2023-03-05T04:53:37;7.20;99.90
41838;DHT22;27511;52.042;5.178;2023-03-05T04:56:03;7.30;99.90
41838;DHT22;27511;52.042;5.178;2023-03-05T04:58:29;7.10;99.90
41838;DHT22;27511;52.042;5.178;2023-03-05T05:00:59;7.10;99.90
41838;DHT22;27511;52.042;5.178;2023-03-05T05:03:24;7.10;99.90
41838;DHT22;27511;52.042;5.178;2023-03-05T05:05:53;7.00;99.90
41838;DHT22;27511;52.042;5.178;2023-03-05T05:08:19;6.80;99.90
41838;DHT22;27511;52.042;5.178;2023-03-05T05:10:44;6.80;99.90
41838;DHT22;27511;52.042;5.178;2023-03-05T05:13:10;6.60;99.90
41838;DHT22;27511;52.042;5.178;2023-03-05T05:15:35;6.60;99.90
41838;DHT22;27511;52.042;5.178;2023-03-05T05:18:01;6.60;99.90
41838;DHT22;27511;52.042;5.178;2023-03-05T05:20:26;6.70;99.90
41838;DHT22;27511;52.042;5.178;2023-03-05T05:22:52;6.70;99.90
41838;DHT22;27511;52.042;5.178;2023-03-05T05:25:17;6.80;99.90
41838;DHT22;27511;52.042;5.178;2023-03-05T05:27:43;6.90;99.90
41838;DHT22;27511;52.042;5.178;2023-03-05T05:30:08;6.90;99.90
41838;DHT22;27511;52.042;5.178;2023-03-05T05:32:34;7.00;99.90
41838;DHT22;27511;52.042;5.178;2023-03-05T05:35:03;7.00;99.90
41838;DHT22;27511;52.042;5.178;2023-03-05T05:37:28;7.00;99.90
41838;DHT22;27511;52.042;5.178;2023-03-05T05:39:54;7.00;99.90
41838;DHT22;27511;52.042;5.178;2023-03-05T05:42:21;7.00;99.90
41838;DHT22;27511;52.042;5.178;2023-03-05T05:44:47;7.20;99.90
41838;DHT22;27511;52.042;5.178;2023-03-05T05:47:13;7.10;99.90
41838;DHT22;27511;52.042;5.178;2023-03-05T05:49:38;7.10;99.90
41838;DHT22;27511;52.042;5.178;2023-03-05T05:52:04;7.10;99.90
41838;DHT22;27511;52.042;5.178;2023-03-05T05:54:30;7.00;99.90
41838;DHT22;27511;52.042;5.178;2023-03-05T05:56:55;7.10;99.90
41838;DHT22;27511;52.042;5.178;2023-03-05T05:59:21;7.10;99.90
41838;DHT22;27511;52.042;5.178;2023-03-05T06:01:46;7.10;99.90
41838;DHT22;27511;52.042;5.178;2023-03-05T06:04:12;7.20;99.90
41838;DHT22;27511;52.042;5.178;2023-03-05T06:06:37;7.00;99.90
41838;DHT22;27511;52.042;5.178;2023-03-05T06:09:03;7.10;99.90
41838;DHT22;27511;52.042;5.178;2023-03-05T06:11:28;6.90;99.90
41838;DHT22;27511;52.042;5.178;2023-03-05T06:13:54;7.10;99.90
41838;DHT22;27511;52.042;5.178;2023-03-05T06:16:21;7.30;99.90
41838;DHT22;27511;52.042;5.178;2023-03-05T06:18:48;7.30;99.90
41838;DHT22;27511;52.042;5.178;2023-03-05T06:21:14;7.30;99.90
41838;DHT22;27511;52.042;5.178;2023-03-05T06:23:41;7.30;99.90
41838;DHT22;27511;52.042;5.178;2023-03-05T06:26:07;7.30;99.90
41838;DHT22;27511;52.042;5.178;2023-03-05T06:28:32;7.30;99.90
41838;DHT22;27511;52.042;5.178;2023-03-05T06:30:59;7.30;99.90
41838;DHT22;27511;52.042;5.178;2023-03-05T06:33:24;7.20;99.90
41838;DHT22;27511;52.042;5.178;2023-03-05T06:35:50;7.20;99.90
41838;DHT22;27511;52.042;5.178;2023-03-05T06:38:15;7.00;99.90
41838;DHT22;27511;52.042;5.178;2023-03-05T06:40:41;6.90;99.90
41838;DHT22;27511;52.042;5.178;2023-03-05T06:43:06;7.00;99.90
41838;DHT22;27511;52.042;5.178;2023-03-05T06:45:32;7.00;99.90
41838;DHT22;27511;52.042;5.178;2023-03-05T06:47:57;7.00;99.90
41838;DHT22;27511;52.042;5.178;2023-03-05T06:50:23;7.00;99.90
41838;DHT22;27511;52.042;5.178;2023-03-05T06:52:51;6.90;99.90
41838;DHT22;27511;52.042;5.178;2023-03-05T06:55:17;7.00;99.90
41838;DHT22;27511;52.042;5.178;2023-03-05T06:57:43;7.10;99.90
41838;DHT22;27511;52.042;5.178;2023-03-05T07:00:08;6.90;99.90
41838;DHT22;27511;52.042;5.178;2023-03-05T07:02:38;6.90;99.90
41838;DHT22;27511;52.042;5.178;2023-03-05T07:05:04;6.80;99.90
41838;DHT22;27511;52.042;5.178;2023-03-05T07:07:30;6.90;99.90
41838;DHT22;27511;52.042;5.178;2023-03-05T07:09:56;6.90;99.90
41838;DHT22;27511;52.042;5.178;2023-03-05T07:12:21;7.10;99.90
41838;DHT22;27511;52.042;5.178;2023-03-05T07:14:47;7.00;99.90
41838;DHT22;27511;52.042;5.178;2023-03-05T07:17:12;7.00;99.90
41838;DHT22;27511;52.042;5.178;2023-03-05T07:19:40;7.20;99.90
41838;DHT22;27511;52.042;5.178;2023-03-05T07:22:06;7.20;99.90
41838;DHT22;27511;52.042;5.178;2023-03-05T07:24:32;7.30;99.90
41838;DHT22;27511;52.042;5.178;2023-03-05T07:26:58;7.50;99.90
41838;DHT22;27511;52.042;5.178;2023-03-05T07:29:24;7.50;99.90
41838;DHT22;27511;52.042;5.178;2023-03-05T07:31:49;7.60;99.90
41838;DHT22;27511;52.042;5.178;2023-03-05T07:34:15;7.60;99.90
41838;DHT22;27511;52.042;5.178;2023-03-05T07:36:40;7.70;99.90
41838;DHT22;27511;52.042;5.178;2023-03-05T07:39:07;7.60;99.90
41838;DHT22;27511;52.042;5.178;2023-03-05T07:41:32;7.50;99.90
41838;DHT22;27511;52.042;5.178;2023-03-05T07:43:58;7.60;99.90
41838;DHT22;27511;52.042;5.178;2023-03-05T07:46:25;7.60;99.90
41838;DHT22;27511;52.042;5.178;2023-03-05T07:48:51;7.70;99.90
41838;DHT22;27511;52.042;5.178;2023-03-05T07:51:18;7.70;99.90
41838;DHT22;27511;52.042;5.178;2023-03-05T07:53:45;7.60;99.90
41838;DHT22;27511;52.042;5.178;2023-03-05T07:56:10;7.70;99.90
41838;DHT22;27511;52.042;5.178;2023-03-05T07:58:36;7.70;99.90
41838;DHT22;27511;52.042;5.178;2023-03-05T08:01:02;7.40;99.90
41838;DHT22;27511;52.042;5.178;2023-03-05T08:03:28;6.90;99.90
41838;DHT22;27511;52.042;5.178;2023-03-05T08:05:53;6.80;99.90
41838;DHT22;27511;52.042;5.178;2023-03-05T08:08:19;6.70;99.90
41838;DHT22;27511;52.042;5.178;2023-03-05T08:10:44;6.70;99.90
41838;DHT22;27511;52.042;5.178;2023-03-05T08:13:10;6.80;99.90
41838;DHT22;27511;52.042;5.178;2023-03-05T08:15:36;6.80;99.90
41838;DHT22;27511;52.042;5.178;2023-03-05T08:18:01;6.90;99.90
41838;DHT22;27511;52.042;5.178;2023-03-05T08:20:27;7.00;99.90
41838;DHT22;27511;52.042;5.178;2023-03-05T08:22:52;7.20;99.90
41838;DHT22;27511;52.042;5.178;2023-03-05T08:25:18;7.30;99.90
41838;DHT22;27511;52.042;5.178;2023-03-05T08:27:45;7.30;99.90
41838;DHT22;27511;52.042;5.178;2023-03-05T08:30:12;7.40;99.90
41838;DHT22;27511;52.042;5.178;2023-03-05T08:32:38;7.50;99.90
41838;DHT22;27511;52.042;5.178;2023-03-05T08:35:04;7.60;99.90
41838;DHT22;27511;52.042;5.178;2023-03-05T08:37:31;7.70;99.90
41838;DHT22;27511;52.042;5.178;2023-03-05T08:39:56;7.70;99.90
41838;DHT22;27511;52.042;5.178;2023-03-05T08:42:22;7.70;99.90
41838;DHT22;27511;52.042;5.178;2023-03-05T08:44:48;7.80;99.90
41838;DHT22;27511;52.042;5.178;2023-03-05T08:47:13;7.80;99.90
41838;DHT22;27511;52.042;5.178;2023-03-05T08:49:39;7.80;99.90
41838;DHT22;27511;52.042;5.178;2023-03-05T08:52:04;7.90;99.90
41838;DHT22;27511;52.042;5.178;2023-03-05T08:54:30;8.00;99.90
41838;DHT22;27511;52.042;5.178;2023-03-05T08:56:55;8.20;99.90
41838;DHT22;27511;52.042;5.178;2023-03-05T08:59:21;8.20;99.90
41838;DHT22;27511;52.042;5.178;2023-03-05T09:01:46;8.20;99.90
41838;DHT22;27511;52.042;5.178;2023-03-05T09:04:12;8.20;99.90
41838;DHT22;27511;52.042;5.178;2023-03-05T09:06:37;8.20;99.90
41838;DHT22;27511;52.042;5.178;2023-03-05T09:09:05;8.30;99.90
41838;DHT22;27511;52.042;5.178;2023-03-05T09:11:31;8.40;99.90
41838;DHT22;27511;52.042;5.178;2023-03-05T09:14:03;8.30;99.90
41838;DHT22;27511;52.042;5.178;2023-03-05T09:16:29;8.20;99.90
41838;DHT22;27511;52.042;5.178;2023-03-05T09:18:54;8.10;99.90
41838;DHT22;27511;52.042;5.178;2023-03-05T09:21:20;8.20;99.90
41838;DHT22;27511;52.042;5.178;2023-03-05T09:23:45;8.20;99.90
41838;DHT22;27511;52.042;5.178;2023-03-05T09:26:12;8.20;99.90
41838;DHT22;27511;52.042;5.178;2023-03-05T09:28:38;8.00;99.90
41838;DHT22;27511;52.042;5.178;2023-03-05T09:31:04;7.90;99.90
41838;DHT22;27511;52.042;5.178;2023-03-05T09:33:30;8.00;99.90
41838;DHT22;27511;52.042;5.178;2023-03-05T09:35:56;8.10;99.90
41838;DHT22;27511;52.042;5.178;2023-03-05T09:38:21;8.10;99.90
41838;DHT22;27511;52.042;5.178;2023-03-05T09:41:01;8.00;99.90
41838;DHT22;27511;52.042;5.178;2023-03-05T09:48:51;7.80;99.90
41838;DHT22;27511;52.042;5.178;2023-03-05T09:51:22;7.80;99.90
41838;DHT22;27511;52.042;5.178;2023-03-05T09:53:59;7.80;99.90
41838;DHT22;27511;52.042;5.178;2023-03-05T09:56:27;7.80;99.90
41838;DHT22;27511;52.042;5.178;2023-03-05T09:58:59;7.90;99.90
41838;DHT22;27511;52.042;5.178;2023-03-05T10:01:33;7.90;99.90
41838;DHT22;27511;52.042;5.178;2023-03-05T10:04:04;8.00;99.90
41838;DHT22;27511;52.042;5.178;2023-03-05T10:06:33;8.00;99.90
41838;DHT22;27511;52.042;5.178;2023-03-05T10:14:23;8.60;99.90
41838;DHT22;27511;52.042;5.178;2023-03-05T10:16:59;8.70;99.90
41838;DHT22;27511;52.042;5.178;2023-03-05T10:19:49;8.80;99.90
41838;DHT22;27511;52.042;5.178;2023-03-05T10:22:19;8.90;99.90
41838;DHT22;27511;52.042;5.178;2023-03-05T10:27:20;8.60;99.90
41838;DHT22;27511;52.042;5.178;2023-03-05T10:30:41;8.60;99.90
41838;DHT22;27511;52.042;5.178;2023-03-05T10:32:41;8.70;99.90
41838;DHT22;27511;52.042;5.178;2023-03-05T10:35:13;8.80;99.90
41838;DHT22;27511;52.042;5.178;2023-03-05T10:42:37;9.10;99.90
41838;DHT22;27511;52.042;5.178;2023-03-05T10:45:12;9.30;99.90
41838;DHT22;27511;52.042;5.178;2023-03-05T10:50:09;9.60;99.90
41838;DHT22;27511;52.042;5.178;2023-03-05T10:52:39;9.70;99.90
41838;DHT22;27511;52.042;5.178;2023-03-05T10:55:14;9.70;99.90
41838;DHT22;27511;52.042;5.178;2023-03-05T10:57:40;9.50;99.90
41838;DHT22;27511;52.042;5.178;2023-03-05T11:02:51;9.30;99.90
41838;DHT22;27511;52.042;5.178;2023-03-05T11:05:39;9.10;99.90
41838;DHT22;27511;52.042;5.178;2023-03-05T11:11:09;9.10;99.90
41838;DHT22;27511;52.042;5.178;2023-03-05T11:13:35;9.20;99.90
41838;DHT22;27511;52.042;5.178;2023-03-05T11:16:02;9.40;99.90
41838;DHT22;27511;52.042;5.178;2023-03-05T11:18:28;9.50;99.90
41838;DHT22;27511;52.042;5.178;2023-03-05T11:24:16;9.40;99.90
41838;DHT22;27511;52.042;5.178;2023-03-05T11:26:49;9.50;99.90
41838;DHT22;27511;52.042;5.178;2023-03-05T11:29:17;9.40;99.90
41838;DHT22;27511;52.042;5.178;2023-03-05T11:31:43;9.40;99.90
41838;DHT22;27511;52.042;5.178;2023-03-05T11:37:05;9.40;99.90
41838;DHT22;27511;52.042;5.178;2023-03-05T11:39:30;9.50;99.90
41838;DHT22;27511;52.042;5.178;2023-03-05T11:42:04;9.50;99.90
41838;DHT22;27511;52.042;5.178;2023-03-05T11:44:38;9.40;99.90
41838;DHT22;27511;52.042;5.178;2023-03-05T11:49:38;9.60;99.90
41838;DHT22;27511;52.042;5.178;2023-03-05T11:52:07;9.70;99.90
41838;DHT22;27511;52.042;5.178;2023-03-05T11:54:41;9.70;99.90
41838;DHT22;27511;52.042;5.178;2023-03-05T11:57:12;9.80;99.90
41838;DHT22;27511;52.042;5.178;2023-03-05T11:59:39;10.00;99.90
41838;DHT22;27511;52.042;5.178;2023-03-05T12:02:15;10.20;99.90
41838;DHT22;27511;52.042;5.178;2023-03-05T12:04:41;10.10;99.90
41838;DHT22;27511;52.042;5.178;2023-03-05T12:07:08;10.10;99.90
41838;DHT22;27511;52.042;5.178;2023-03-05T12:10:12;10.00;99.90
41838;DHT22;27511;52.042;5.178;2023-03-05T12:15:17;10.10;99.90
41838;DHT22;27511;52.042;5.178;2023-03-05T12:17:56;10.10;99.90
41838;DHT22;27511;52.042;5.178;2023-03-05T12:20:32;10.20;99.90
41838;DHT22;27511;52.042;5.178;2023-03-05T12:22:59;10.20;99.90
41838;DHT22;27511;52.042;5.178;2023-03-05T12:25:34;10.20;99.90
41838;DHT22;27511;52.042;5.178;2023-03-05T12:28:54;10.00;99.90
41838;DHT22;27511;52.042;5.178;2023-03-05T12:30:55;10.00;99.90
41838;DHT22;27511;52.042;5.178;2023-03-05T12:33:28;10.10;99.90
41838;DHT22;27511;52.042;5.178;2023-03-05T12:36:14;10.10;99.90
41838;DHT22;27511;52.042;5.178;2023-03-05T12:38:39;10.20;99.90
41838;DHT22;27511;52.042;5.178;2023-03-05T12:44:06;10.00;99.90
41838;DHT22;27511;52.042;5.178;2023-03-05T12:51:53;9.90;99.90
41838;DHT22;27511;52.042;5.178;2023-03-05T12:54:29;10.00;99.90
41838;DHT22;27511;52.042;5.178;2023-03-05T12:56:59;9.90;99.90
41838;DHT22;27511;52.042;5.178;2023-03-05T13:00:08;9.90;99.90
41838;DHT22;27511;52.042;5.178;2023-03-05T13:02:36;9.80;99.90
41838;DHT22;27511;52.042;5.178;2023-03-05T13:05:01;10.00;99.90
41838;DHT22;27511;52.042;5.178;2023-03-05T13:07:27;10.00;99.90
41838;DHT22;27511;52.042;5.178;2023-03-05T13:09:56;10.10;99.90
41838;DHT22;27511;52.042;5.178;2023-03-05T13:12:22;10.00;99.90
41838;DHT22;27511;52.042;5.178;2023-03-05T13:14:58;9.90;99.90
41838;DHT22;27511;52.042;5.178;2023-03-05T13:17:29;10.00;99.90
41838;DHT22;27511;52.042;5.178;2023-03-05T13:19:55;10.20;99.90
41838;DHT22;27511;52.042;5.178;2023-03-05T13:22:21;10.30;99.90
41838;DHT22;27511;52.042;5.178;2023-03-05T13:27:32;10.80;99.90
41838;DHT22;27511;52.042;5.178;2023-03-05T13:29:58;10.80;99.90
41838;DHT22;27511;52.042;5.178;2023-03-05T13:32:26;10.80;99.90
41838;DHT22;27511;52.042;5.178;2023-03-05T13:34:53;10.50;99.90
41838;DHT22;27511;52.042;5.178;2023-03-05T13:37:20;10.50;99.90
41838;DHT22;27511;52.042;5.178;2023-03-05T13:39:47;10.40;99.90
41838;DHT22;27511;52.042;5.178;2023-03-05T13:42:17;10.30;99.90
41838;DHT22;27511;52.042;5.178;2023-03-05T13:44:47;10.50;99.90
41838;DHT22;27511;52.042;5.178;2023-03-05T13:47:18;10.60;99.90
41838;DHT22;27511;52.042;5.178;2023-03-05T13:49:53;10.50;99.90
41838;DHT22;27511;52.042;5.178;2023-03-05T13:52:23;10.30;99.90
41838;DHT22;27511;52.042;5.178;2023-03-05T13:54:49;10.20;99.90
41838;DHT22;27511;52.042;5.178;2023-03-05T13:59:58;10.20;99.90
41838;DHT22;27511;52.042;5.178;2023-03-05T14:02:25;10.30;99.90
41838;DHT22;27511;52.042;5.178;2023-03-05T14:04:51;10.30;99.90
41838;DHT22;27511;52.042;5.178;2023-03-05T14:09:46;10.00;99.90
41838;DHT22;27511;52.042;5.178;2023-03-05T14:12:29;9.70;99.90
41838;DHT22;27511;52.042;5.178;2023-03-05T14:14:57;9.40;99.90
41838;DHT22;27511;52.042;5.178;2023-03-05T14:17:39;9.10;99.90
41838;DHT22;27511;52.042;5.178;2023-03-05T14:22:38;9.00;99.90
41838;DHT22;27511;52.042;5.178;2023-03-05T14:25:04;9.10;99.90
41838;DHT22;27511;52.042;5.178;2023-03-05T14:27:32;9.10;99.90
41838;DHT22;27511;52.042;5.178;2023-03-05T14:29:58;9.10;99.90
41838;DHT22;27511;52.042;5.178;2023-03-05T14:32:29;9.20;99.90
41838;DHT22;27511;52.042;5.178;2023-03-05T14:34:57;9.10;99.90
41838;DHT22;27511;52.042;5.178;2023-03-05T14:37:28;9.20;99.90
41838;DHT22;27511;52.042;5.178;2023-03-05T14:39:57;9.20;99.90
41838;DHT22;27511;52.042;5.178;2023-03-05T14:42:36;9.40;99.90
41838;DHT22;27511;52.042;5.178;2023-03-05T14:45:13;9.60;99.90
41838;DHT22;27511;52.042;5.178;2023-03-05T14:47:39;9.80;99.90
41838;DHT22;27511;52.042;5.178;2023-03-05T14:50:05;9.90;99.90
41838;DHT22;27511;52.042;5.178;2023-03-05T14:52:30;10.00;99.90
41838;DHT22;27511;52.042;5.178;2023-03-05T14:54:56;10.30;99.90
41838;DHT22;27511;52.042;5.178;2023-03-05T14:57:23;10.50;99.90
41838;DHT22;27511;52.042;5.178;2023-03-05T14:59:49;10.50;99.90
41838;DHT22;27511;52.042;5.178;2023-03-05T15:02:16;10.70;99.90
41838;DHT22;27511;52.042;5.178;2023-03-05T15:04:42;11.00;99.90
41838;DHT22;27511;52.042;5.178;2023-03-05T15:07:12;11.10;99.90
41838;DHT22;27511;52.042;5.178;2023-03-05T15:09:40;11.10;99.90
41838;DHT22;27511;52.042;5.178;2023-03-05T15:12:05;11.10;99.90
41838;DHT22;27511;52.042;5.178;2023-03-05T15:14:31;11.10;99.90
41838;DHT22;27511;52.042;5.178;2023-03-05T15:16:56;11.20;99.90
41838;DHT22;27511;52.042;5.178;2023-03-05T15:19:22;11.60;99.90
41838;DHT22;27511;52.042;5.178;2023-03-05T15:21:47;12.00;99.90
41838;DHT22;27511;52.042;5.178;2023-03-05T15:24:13;12.20;99.90
41838;DHT22;27511;52.042;5.178;2023-03-05T15:26:39;12.20;99.90
41838;DHT22;27511;52.042;5.178;2023-03-05T15:29:04;12.00;99.90
41838;DHT22;27511;52.042;5.178;2023-03-05T15:31:30;11.80;99.90
41838;DHT22;27511;52.042;5.178;2023-03-05T15:33:59;11.30;99.90
41838;DHT22;27511;52.042;5.178;2023-03-05T15:36:25;10.70;99.90
41838;DHT22;27511;52.042;5.178;2023-03-05T15:38:50;10.10;99.90
41838;DHT22;27511;52.042;5.178;2023-03-05T15:41:16;9.70;99.90
41838;DHT22;27511;52.042;5.178;2023-03-05T15:43:41;9.50;99.90
41838;DHT22;27511;52.042;5.178;2023-03-05T15:46:07;9.40;99.90
41838;DHT22;27511;52.042;5.178;2023-03-05T15:48:32;9.30;99.90
41838;DHT22;27511;52.042;5.178;2023-03-05T15:50:58;9.10;99.90
41838;DHT22;27511;52.042;5.178;2023-03-05T15:53:23;9.10;99.90
41838;DHT22;27511;52.042;5.178;2023-03-05T15:55:49;9.00;99.90
41838;DHT22;27511;52.042;5.178;2023-03-05T15:58:15;8.80;99.90
41838;DHT22;27511;52.042;5.178;2023-03-05T16:00:41;8.80;99.90
41838;DHT22;27511;52.042;5.178;2023-03-05T16:03:06;8.70;99.90
41838;DHT22;27511;52.042;5.178;2023-03-05T16:05:32;8.70;99.90
41838;DHT22;27511;52.042;5.178;2023-03-05T16:07:58;8.70;99.90
41838;DHT22;27511;52.042;5.178;2023-03-05T16:10:24;9.00;99.90
41838;DHT22;27511;52.042;5.178;2023-03-05T16:12:55;8.90;99.90
41838;DHT22;27511;52.042;5.178;2023-03-05T16:15:21;8.90;99.90
41838;DHT22;27511;52.042;5.178;2023-03-05T16:17:48;8.90;99.90
41838;DHT22;27511;52.042;5.178;2023-03-05T16:20:16;9.00;99.90
41838;DHT22;27511;52.042;5.178;2023-03-05T16:22:41;9.00;99.90
41838;DHT22;27511;52.042;5.178;2023-03-05T16:25:07;9.00;99.90
41838;DHT22;27511;52.042;5.178;2023-03-05T16:27:33;9.10;99.90
41838;DHT22;27511;52.042;5.178;2023-03-05T16:29:58;9.10;99.90
41838;DHT22;27511;52.042;5.178;2023-03-05T16:32:24;9.20;99.90
41838;DHT22;27511;52.042;5.178;2023-03-05T16:34:49;9.20;99.90
41838;DHT22;27511;52.042;5.178;2023-03-05T16:37:19;9.20;99.90
41838;DHT22;27511;52.042;5.178;2023-03-05T16:39:45;9.00;99.90
41838;DHT22;27511;52.042;5.178;2023-03-05T16:42:10;8.80;99.90